Opp, AL (36467)

12:20 AM CDT on April 25, 2017 (GMT -0500)
Opp Cablevision Headend | | Change Station

Elev 327 ft 31.29 °N, 86.26 °W | Updated 26 days ago

Scattered Clouds
Scattered Clouds
80.5 °F
Feels Like 80.5 °F
N
3.0
Wind Variable Wind from SSE
Gusts 10.0 mph

Today
High -- | Low -- °F
--% Chance of Precip.
Yesterday
High -- | Low -- °F
Precip. -- in
Pressure 29.78 in
Visibility 10.0 miles
Clouds Scattered Clouds 4500 ft
Dew Point 59.0 °F
Humidity 48%
Rainfall in
Snow Depth Not available.
6:05 AM 7:20 PM
Waning Crescent, 2% visible
METAR K79J 250456Z AUTO 25003KT 10SM SCT045 16/12 A2979 RMK AO2 SLP085 T01560117 402330122
Pressure 29.78 in
Visibility 10.0 miles
Clouds Scattered Clouds 4500 ft
Dew Point 59.0 °F
Humidity 48%
Rainfall in
Snow Depth Not available.
6:05 AM 7:20 PM
Waning Crescent, 2% visible
METAR K79J 250456Z AUTO 25003KT 10SM SCT045 16/12 A2979 RMK AO2 SLP085 T01560117 402330122

Get Severe Weather Alerts

Thanks for signing up!

Be on the lookout for a verification email in your inbox.

You'll start receiving the daily forecast at 8 AM.

×

10-Day Weather Forecast

Almanac

Astronomy

Apr. 25, 2017 Rise Set
Actual Time
Civil Twilight
Nautical Twilight
Astronomical Twilight
Moon
Length of Visible Light
Length of Day
Tomorrow will be .
, % of the Moon is Illuminated

Today's Extremes

State Highs State Lows

Community

WunderPhotos

WunderBlog® & News

Nearby

Air Quality

  Air Quality AQ Index Pollutant
Not available.

Snow Depth

Station Depth Elevation

Earthquake Activity

City Distance Mag. Time & Date
Minimum magnitude displayed is 2.5.

Coastal Water Temperatures

Place Temperature

Stations

Nearby Weather Stations

Station Location Temp. Windchill Dew Point Humidity Wind Precip. Elev Updated Type
                   

Watches & Warnings

There are currently no watches in effect.